Time;durP1;ratioP1;P1;durP2;ratioP2;P2;SDS_P1;SDS_P2;PMS_P1;PMS_P2;Temp;Humidity;BMP_temperature;BMP_pressure;BME280_temperature;BME280_humidity;BME280_pressure;Samples;Min_cycle;Max_cycle;Signal;HPM_P1;HPM_P2
2023/06/11 00:02:06;;;;;;;9.97;9.10;;;20.70;99.90;;;;;;5050549;28;20193;-55
2023/06/11 00:04:34;;;;;;;8.80;8.10;;;20.70;99.90;;;;;;5056303;28;20222;-55
2023/06/11 00:07:02;;;;;;;12.33;8.27;;;20.70;99.90;;;;;;5050915;28;20452;-55
2023/06/11 00:09:28;;;;;;;9.30;8.00;;;20.60;99.90;;;;;;5068062;28;20992;-55
2023/06/11 00:11:54;;;;;;;8.40;7.60;;;20.60;99.90;;;;;;5056453;28;20448;-54
2023/06/11 00:14:22;;;;;;;14.80;8.30;;;20.50;99.90;;;;;;5049336;28;20464;-54
2023/06/11 00:16:48;;;;;;;8.23;7.40;;;20.50;99.90;;;;;;5047448;28;20460;-57
2023/06/11 00:19:14;;;;;;;9.40;8.13;;;20.50;99.90;;;;;;5051899;28;20862;-56
2023/06/11 00:21:46;;;;;;;7.50;6.70;;;20.40;99.90;;;;;;5054984;28;20499;-56
2023/06/11 00:24:14;;;;;;;6.40;5.80;;;20.30;99.90;;;;;;5055633;28;20181;-56
2023/06/11 00:26:40;;;;;;;8.67;6.47;;;20.20;99.90;;;;;;5048499;28;20533;-55
2023/06/11 00:29:07;;;;;;;7.50;6.80;;;20.20;99.90;;;;;;5044568;28;21069;-56
2023/06/11 00:31:33;;;;;;;6.57;5.90;;;20.20;99.90;;;;;;5043908;28;20455;-56
2023/06/11 00:34:00;;;;;;;6.00;5.50;;;20.10;99.90;;;;;;5044442;28;20965;-56
2023/06/11 00:36:26;;;;;;;6.83;6.13;;;20.10;99.90;;;;;;5047801;28;20282;-55
2023/06/11 00:38:53;;;;;;;7.60;6.80;;;20.10;99.90;;;;;;5051340;28;20929;-55
2023/06/11 00:41:20;;;;;;;7.80;6.27;;;20.10;99.90;;;;;;5045476;28;20545;-55
2023/06/11 00:43:48;;;;;;;6.90;5.70;;;20.10;99.90;;;;;;5046879;28;20451;-55
2023/06/11 00:46:16;;;;;;;8.40;5.37;;;20.10;99.90;;;;;;5048310;28;20488;-55
2023/06/11 00:48:42;;;;;;;6.17;5.50;;;20.10;99.90;;;;;;5041274;28;20445;-55
2023/06/11 00:51:10;;;;;;;6.37;5.43;;;20.10;99.90;;;;;;5049414;28;20476;-56
2023/06/11 00:53:36;;;;;;;6.43;5.60;;;20.10;99.90;;;;;;5042902;28;20255;-55
2023/06/11 00:56:02;;;;;;;7.80;5.40;;;20.00;99.90;;;;;;5050236;28;20484;-56
2023/06/11 00:58:29;;;;;;;6.73;5.50;;;20.10;99.90;;;;;;5058438;28;20233;-54
2023/06/11 01:00:57;;;;;;;7.70;6.07;;;20.00;99.90;;;;;;5048929;28;20472;-55
2023/06/11 01:03:26;;;;;;;8.10;5.20;;;20.00;99.90;;;;;;5054128;28;20561;-56
2023/06/11 01:06:02;;;;;;;8.83;4.60;;;20.00;99.90;;;;;;5043321;28;20452;-56
2023/06/11 01:08:34;;;;;;;6.00;5.30;;;19.90;99.90;;;;;;5042389;28;20444;-56
2023/06/11 01:11:01;;;;;;;5.30;4.80;;;19.90;99.90;;;;;;5043837;28;20449;-55
2023/06/11 01:13:30;;;;;;;5.40;4.10;;;19.90;99.90;;;;;;5049748;28;20565;-56
2023/06/11 01:16:08;;;;;;;6.23;5.60;;;19.80;99.90;;;;;;5052124;28;20455;-56
2023/06/11 01:18:46;;;;;;;7.73;5.10;;;19.80;99.90;;;;;;5045465;28;20446;-56
2023/06/11 01:21:18;;;;;;;5.20;4.60;;;19.80;99.90;;;;;;5047237;28;20472;-55
2023/06/11 01:24:21;;;;;;;5.83;4.70;;;19.80;99.90;;;;;;5047028;28;20803;-54
2023/06/11 01:27:17;;;;;;;5.63;4.77;;;19.80;99.90;;;;;;5039494;28;20452;-56
2023/06/11 01:29:45;;;;;;;6.73;4.83;;;19.70;99.90;;;;;;5024064;28;20499;-55
2023/06/11 01:32:12;;;;;;;4.63;4.23;;;19.70;99.90;;;;;;5047632;28;20452;-55
2023/06/11 01:34:46;;;;;;;8.40;4.57;;;19.80;99.90;;;;;;5046194;28;20524;-55
2023/06/11 01:37:12;;;;;;;7.77;4.87;;;19.70;99.90;;;;;;5048313;28;21006;-56
2023/06/11 01:39:38;;;;;;;7.17;5.10;;;19.60;99.90;;;;;;5044264;28;20449;-55
2023/06/11 01:42:05;;;;;;;7.10;4.77;;;19.90;99.90;;;;;;5045153;28;20645;-56
2023/06/11 01:44:32;;;;;;;5.20;4.80;;;19.60;99.90;;;;;;5053666;28;20453;-55
2023/06/11 01:46:58;;;;;;;5.77;4.60;;;19.60;99.90;;;;;;5052279;28;20434;-54
2023/06/11 01:49:24;;;;;;;5.97;4.40;;;19.50;99.90;;;;;;5048332;28;20445;-55
2023/06/11 01:51:50;;;;;;;5.50;4.87;;;19.50;99.90;;;;;;5042086;28;20456;-55
2023/06/11 01:54:17;;;;;;;9.73;4.83;;;19.50;99.90;;;;;;5044439;28;20487;-57
2023/06/11 01:56:43;;;;;;;7.67;4.57;;;19.50;99.90;;;;;;5042721;28;20182;-56
2023/06/11 01:59:09;;;;;;;9.13;6.67;;;19.40;99.90;;;;;;5045040;28;20558;-55
2023/06/11 02:01:36;;;;;;;8.40;5.33;;;19.30;99.90;;;;;;5043945;28;20957;-55
2023/06/11 02:04:03;;;;;;;7.20;5.63;;;19.20;99.90;;;;;;5052154;28;20185;-56
2023/06/11 02:06:29;;;;;;;5.17;4.67;;;19.20;99.90;;;;;;5045171;28;20483;-56
2023/06/11 02:08:55;;;;;;;5.83;5.20;;;19.10;99.90;;;;;;5042627;28;20454;-55
2023/06/11 02:11:21;;;;;;;7.43;5.07;;;19.10;99.90;;;;;;5041499;28;20440;-55
2023/06/11 02:13:46;;;;;;;6.47;5.13;;;19.20;99.90;;;;;;5049296;28;20208;-55
2023/06/11 02:16:12;;;;;;;7.70;5.20;;;19.20;99.90;;;;;;5051581;28;20182;-55
2023/06/11 02:18:37;;;;;;;8.97;6.03;;;19.10;99.90;;;;;;5051323;28;20213;-56
2023/06/11 02:21:03;;;;;;;8.47;5.93;;;19.00;99.90;;;;;;5047586;28;20186;-56
2023/06/11 02:23:29;;;;;;;5.70;5.20;;;18.90;99.90;;;;;;5049054;28;20188;-56
2023/06/11 02:25:55;;;;;;;10.43;6.20;;;19.00;99.90;;;;;;5043515;28;20190;-56
2023/06/11 02:28:20;;;;;;;7.47;5.60;;;18.90;99.90;;;;;;5043819;28;20547;-56
2023/06/11 02:30:46;;;;;;;9.40;6.30;;;18.80;99.90;;;;;;5047709;28;20460;-56
2023/06/11 02:33:12;;;;;;;5.90;5.37;;;18.80;99.90;;;;;;5052550;28;20327;-56
2023/06/11 02:35:37;;;;;;;5.73;5.23;;;18.70;99.90;;;;;;5046548;28;20569;-57
2023/06/11 02:38:03;;;;;;;6.37;5.77;;;18.60;99.90;;;;;;5051442;28;20208;-54
2023/06/11 02:40:28;;;;;;;7.57;5.37;;;18.60;99.90;;;;;;5054385;28;20644;-55
2023/06/11 02:42:54;;;;;;;7.77;6.00;;;18.50;99.90;;;;;;5052606;28;20194;-56
2023/06/11 02:45:20;;;;;;;10.03;6.93;;;18.40;99.90;;;;;;5048253;28;20288;-55
2023/06/11 02:47:45;;;;;;;8.43;5.87;;;18.30;99.90;;;;;;5058716;28;20814;-55
2023/06/11 02:50:11;;;;;;;6.47;5.70;;;18.20;99.90;;;;;;5048024;28;20547;-55
2023/06/11 02:52:36;;;;;;;10.00;6.67;;;18.20;99.90;;;;;;5049727;28;20275;-55
2023/06/11 02:55:02;;;;;;;8.17;6.43;;;18.20;99.90;;;;;;5045859;28;20200;-55
2023/06/11 02:57:29;;;;;;;6.57;5.97;;;18.20;99.90;;;;;;5048536;28;20607;-56
2023/06/11 02:59:54;;;;;;;7.60;6.77;;;18.10;99.90;;;;;;5049125;28;20236;-55
2023/06/11 03:02:20;;;;;;;8.83;6.57;;;18.10;99.90;;;;;;5051952;28;20447;-55
2023/06/11 03:04:46;;;;;;;6.57;5.87;;;18.00;99.90;;;;;;5049754;28;20192;-55
2023/06/11 03:07:11;;;;;;;5.90;5.40;;;18.00;99.90;;;;;;5050016;28;20519;-54
2023/06/11 03:09:37;;;;;;;8.13;6.70;;;17.90;99.90;;;;;;5048851;28;20203;-54
2023/06/11 03:12:02;;;;;;;8.83;5.87;;;17.90;99.90;;;;;;5049998;28;20230;-56
2023/06/11 03:14:28;;;;;;;8.93;6.53;;;17.90;99.90;;;;;;5044028;28;20624;-56
2023/06/11 03:16:54;;;;;;;7.13;6.47;;;17.90;99.90;;;;;;5048399;28;20189;-55
2023/06/11 03:19:19;;;;;;;7.00;6.27;;;17.90;99.90;;;;;;5049272;28;20209;-55
2023/06/11 03:21:45;;;;;;;6.77;5.57;;;17.90;99.90;;;;;;5050477;28;20195;-56
2023/06/11 03:24:11;;;;;;;7.60;6.10;;;17.90;99.90;;;;;;5044284;28;20199;-55
2023/06/11 03:26:37;;;;;;;7.00;5.83;;;17.90;99.90;;;;;;5048012;28;20458;-55
2023/06/11 03:29:03;;;;;;;6.07;5.13;;;18.00;99.90;;;;;;5044059;28;20221;-56
2023/06/11 03:31:29;;;;;;;6.73;5.33;;;18.10;99.90;;;;;;5045869;28;20193;-55
2023/06/11 03:33:54;;;;;;;7.93;5.33;;;18.30;99.90;;;;;;5047431;28;20481;-55
2023/06/11 03:36:20;;;;;;;10.63;5.60;;;18.50;99.90;;;;;;5048347;28;20187;-55
2023/06/11 03:38:46;;;;;;;6.93;5.37;;;18.70;99.90;;;;;;5044693;28;20197;-55
2023/06/11 03:41:11;;;;;;;6.30;5.70;;;18.70;99.90;;;;;;5046351;28;20184;-54
2023/06/11 03:43:37;;;;;;;6.03;5.43;;;18.80;99.90;;;;;;5048679;28;20658;-55
2023/06/11 03:46:03;;;;;;;6.40;5.73;;;18.70;99.90;;;;;;5044552;28;20182;-55
2023/06/11 03:48:29;;;;;;;6.90;6.30;;;18.80;99.90;;;;;;5052586;28;20187;-56
2023/06/11 03:50:54;;;;;;;6.20;5.60;;;18.90;99.90;;;;;;5047916;28;20547;-54
2023/06/11 03:53:20;;;;;;;8.33;6.00;;;18.80;99.90;;;;;;5053331;28;20218;-55
2023/06/11 03:55:45;;;;;;;7.27;5.80;;;18.80;99.90;;;;;;5054747;28;20182;-56
2023/06/11 03:58:11;;;;;;;8.60;4.80;;;18.70;99.90;;;;;;5044035;28;20702;-56
2023/06/11 04:00:37;;;;;;;6.47;5.20;;;18.40;99.90;;;;;;5047768;28;20235;-55
2023/06/11 04:03:02;;;;;;;8.30;5.20;;;18.40;99.90;;;;;;5046571;28;20661;-55
2023/06/11 04:05:28;;;;;;;5.30;4.83;;;18.20;99.90;;;;;;5057995;28;20282;-55
2023/06/11 04:07:53;;;;;;;8.63;5.77;;;18.10;99.90;;;;;;5054997;28;20184;-54
2023/06/11 04:10:20;;;;;;;6.73;5.97;;;17.90;99.90;;;;;;5043128;28;20188;-55
2023/06/11 04:12:46;;;;;;;6.37;5.77;;;17.80;99.90;;;;;;5056133;28;20263;-56
2023/06/11 04:15:12;;;;;;;6.47;5.87;;;17.90;99.90;;;;;;5045000;28;20439;-55
2023/06/11 04:17:39;;;;;;;7.17;6.57;;;17.80;99.90;;;;;;5048329;28;20723;-56
2023/06/11 04:20:05;;;;;;;9.53;7.23;;;17.90;99.90;;;;;;5050944;28;20443;-56
2023/06/11 04:22:31;;;;;;;7.77;6.73;;;17.80;99.90;;;;;;5054124;28;20447;-56
2023/06/11 04:24:57;;;;;;;7.10;6.40;;;17.80;99.90;;;;;;5049980;28;20917;-55
2023/06/11 04:27:22;;;;;;;7.40;6.70;;;17.70;99.90;;;;;;5051645;28;20549;-57
2023/06/11 04:29:52;;;;;;;8.37;7.60;;;17.60;99.90;;;;;;5044557;28;20191;-55
2023/06/11 04:32:20;;;;;;;7.77;7.07;;;17.60;99.90;;;;;;5046794;28;20189;-56
2023/06/11 04:34:48;;;;;;;9.57;7.80;;;17.60;99.90;;;;;;5055692;28;20455;-56
2023/06/11 04:37:16;;;;;;;9.20;8.30;;;17.60;99.90;;;;;;5046308;28;20458;-55
2023/06/11 04:39:41;;;;;;;10.30;7.57;;;17.70;99.90;;;;;;5052434;28;20866;-57
2023/06/11 04:42:07;;;;;;;8.80;8.00;;;17.80;99.90;;;;;;5052755;28;20443;-55
2023/06/11 04:44:33;;;;;;;9.53;8.53;;;17.80;99.90;;;;;;5051191;28;20194;-55
2023/06/11 04:46:58;;;;;;;8.77;7.70;;;17.90;99.90;;;;;;5046767;28;20439;-55
2023/06/11 04:49:24;;;;;;;9.00;8.10;;;17.90;99.90;;;;;;5048561;28;20185;-55
2023/06/11 04:51:52;;;;;;;8.33;7.50;;;18.00;99.90;;;;;;5044108;28;20240;-57
2023/06/11 04:54:21;;;;;;;8.57;7.67;;;18.00;99.90;;;;;;5047205;28;20627;-55
2023/06/11 04:56:47;;;;;;;8.83;7.93;;;18.10;99.90;;;;;;5045913;28;20516;-54
2023/06/11 04:59:13;;;;;;;8.83;7.77;;;18.20;99.90;;;;;;5049919;28;20699;-56
2023/06/11 05:01:46;;;;;;;9.20;8.40;;;18.20;99.90;;;;;;5050445;28;20540;-56
2023/06/11 05:04:13;;;;;;;11.87;8.03;;;18.30;99.90;;;;;;5040940;28;20241;-55
2023/06/11 05:06:44;;;;;;;8.97;8.17;;;18.40;99.90;;;;;;5047685;28;20451;-55
2023/06/11 05:09:13;;;;;;;9.10;8.20;;;18.50;99.90;;;;;;5056127;28;20979;-57
2023/06/11 05:11:43;;;;;;;9.73;8.60;;;18.40;99.90;;;;;;5052589;28;20478;-56
2023/06/11 05:14:10;;;;;;;11.43;8.80;;;18.60;99.90;;;;;;5043981;28;20480;-57
2023/06/11 05:16:36;;;;;;;10.07;8.03;;;18.70;99.90;;;;;;5045987;28;20459;-55
2023/06/11 05:19:03;;;;;;;9.33;8.43;;;18.80;99.90;;;;;;5045126;28;20534;-55
2023/06/11 05:21:29;;;;;;;8.93;7.70;;;18.90;99.90;;;;;;5049082;28;20450;-55
2023/06/11 05:23:56;;;;;;;9.60;8.17;;;19.10;99.90;;;;;;5046200;28;20929;-55
2023/06/11 05:26:32;;;;;;;9.33;8.53;;;19.20;99.90;;;;;;5045656;28;20953;-55
2023/06/11 05:28:58;;;;;;;8.93;8.03;;;19.40;99.90;;;;;;5042958;28;20481;-55
2023/06/11 05:31:23;;;;;;;8.63;7.73;;;19.50;99.90;;;;;;5038769;28;20480;-55
2023/06/11 05:33:49;;;;;;;8.80;8.00;;;19.60;99.90;;;;;;5043534;28;20302;-56
2023/06/11 05:36:16;;;;;;;12.00;8.67;;;19.70;99.90;;;;;;5045508;28;20198;-56
2023/06/11 05:38:43;;;;;;;9.07;7.73;;;19.80;99.90;;;;;;5056758;28;20439;-56
2023/06/11 05:41:08;;;;;;;12.40;8.20;;;19.90;99.90;;;;;;5043554;28;20459;-55
2023/06/11 05:43:35;;;;;;;8.03;7.33;;;20.00;99.90;;;;;;5044341;28;20478;-55
2023/06/11 05:46:01;;;;;;;12.03;8.87;;;20.20;99.90;;;;;;5044767;28;20555;-56
2023/06/11 05:48:27;;;;;;;7.40;6.73;;;20.30;99.90;;;;;;5036572;28;20480;-56
2023/06/11 05:50:53;;;;;;;8.13;7.30;;;20.40;99.90;;;;;;5049470;28;20753;-56
2023/06/11 05:53:18;;;;;;;8.40;7.27;;;20.50;99.90;;;;;;5044294;28;20580;-54
2023/06/11 05:55:44;;;;;;;7.63;7.00;;;20.40;99.90;;;;;;5049924;28;20206;-56
2023/06/11 05:58:10;;;;;;;6.30;5.70;;;20.50;99.90;;;;;;5044738;28;20210;-55
2023/06/11 06:00:35;;;;;;;7.77;6.93;;;20.60;99.90;;;;;;5050728;28;20227;-57
2023/06/11 06:03:03;;;;;;;7.50;6.53;;;20.60;99.90;;;;;;5035566;28;20194;-56
2023/06/11 06:05:29;;;;;;;6.70;6.07;;;20.70;99.90;;;;;;5044449;28;20194;-56
2023/06/11 06:07:54;;;;;;;8.17;5.80;;;20.70;99.90;;;;;;5049989;28;20539;-55
2023/06/11 06:10:20;;;;;;;7.40;6.60;;;20.80;99.90;;;;;;5052740;28;20189;-57
2023/06/11 06:12:45;;;;;;;6.50;5.03;;;20.70;99.90;;;;;;5049949;28;20254;-55
2023/06/11 06:15:11;;;;;;;7.33;5.70;;;20.80;99.90;;;;;;5046602;28;20186;-55
2023/06/11 06:17:37;;;;;;;6.93;6.33;;;21.00;99.90;;;;;;5047549;28;20189;-55
2023/06/11 06:20:04;;;;;;;7.10;6.20;;;21.10;99.90;;;;;;5048804;28;20204;-58
2023/06/11 06:22:29;;;;;;;7.53;5.80;;;21.30;99.90;;;;;;5047033;28;20206;-55
2023/06/11 06:24:55;;;;;;;6.63;5.37;;;21.40;99.90;;;;;;5047208;28;20455;-57
2023/06/11 06:27:21;;;;;;;8.00;5.60;;;21.50;99.90;;;;;;5048885;28;20190;-56
2023/06/11 06:29:46;;;;;;;8.17;6.20;;;21.60;99.90;;;;;;5049009;28;20295;-56
2023/06/11 06:32:12;;;;;;;6.90;5.70;;;21.80;99.90;;;;;;5049075;28;20203;-56
2023/06/11 06:34:37;;;;;;;7.37;5.57;;;22.00;99.90;;;;;;5049583;28;20748;-57
2023/06/11 06:37:03;;;;;;;5.77;5.27;;;22.20;99.90;;;;;;5054734;28;20426;-57
2023/06/11 06:39:29;;;;;;;6.00;5.30;;;22.30;99.90;;;;;;5049320;28;20514;-58
2023/06/11 06:41:55;;;;;;;8.30;5.90;;;22.30;99.90;;;;;;5045824;28;20294;-57
2023/06/11 06:44:20;;;;;;;7.43;5.93;;;22.50;99.90;;;;;;5048634;28;20887;-57
2023/06/11 06:46:46;;;;;;;5.77;5.17;;;22.50;99.90;;;;;;5046190;28;20227;-56
2023/06/11 06:49:11;;;;;;;6.63;5.50;;;22.70;99.90;;;;;;5048436;28;20195;-55
2023/06/11 06:51:37;;;;;;;7.00;5.13;;;22.70;99.90;;;;;;5046936;28;20701;-55
2023/06/11 06:54:03;;;;;;;7.80;5.60;;;22.90;99.90;;;;;;5047248;28;20248;-55
2023/06/11 06:56:29;;;;;;;6.23;5.50;;;23.10;99.90;;;;;;5049853;28;20191;-57
2023/06/11 06:58:55;;;;;;;11.50;6.10;;;23.30;99.90;;;;;;5048531;28;20443;-57
2023/06/11 07:01:20;;;;;;;6.30;5.27;;;23.40;99.90;;;;;;5044562;28;20196;-57
2023/06/11 07:03:46;;;;;;;7.80;5.20;;;23.30;99.90;;;;;;5041757;28;20292;-55
2023/06/11 07:06:12;;;;;;;5.57;5.07;;;23.50;99.90;;;;;;5046691;28;20613;-57
2023/06/11 07:08:41;;;;;;;6.40;5.10;;;23.70;99.90;;;;;;5047994;28;20199;-57
2023/06/11 07:11:06;;;;;;;7.10;5.80;;;23.80;99.90;;;;;;5050310;28;20616;-56
2023/06/11 07:13:32;;;;;;;6.83;5.27;;;23.90;99.90;;;;;;5050619;28;20508;-58
2023/06/11 07:15:57;;;;;;;5.70;5.20;;;24.00;99.90;;;;;;5056777;28;20671;-56
2023/06/11 07:18:25;;;;;;;7.73;5.70;;;24.10;99.90;;;;;;5048023;28;20342;-56
2023/06/11 07:20:50;;;;;;;9.23;5.30;;;24.20;99.90;;;;;;5047458;28;20193;-56
2023/06/11 07:23:16;;;;;;;7.03;5.53;;;24.10;99.90;;;;;;5049437;28;20507;-55
2023/06/11 07:25:43;;;;;;;5.90;5.30;;;24.30;99.90;;;;;;5047867;28;20189;-55
2023/06/11 07:28:08;;;;;;;7.20;5.10;;;24.40;99.90;;;;;;5047782;28;20776;-56
2023/06/11 07:30:34;;;;;;;7.63;5.40;;;24.60;99.90;;;;;;5046518;28;20549;-56
2023/06/11 07:33:00;;;;;;;5.80;5.30;;;24.60;99.90;;;;;;5045264;28;20219;-56
2023/06/11 07:35:27;;;;;;;7.23;5.07;;;24.60;99.90;;;;;;5044822;28;20550;-56
2023/06/11 07:37:53;;;;;;;6.30;5.70;;;24.80;99.90;;;;;;5050756;28;20832;-57
2023/06/11 07:40:19;;;;;;;7.17;5.30;;;24.70;99.90;;;;;;5043968;28;20801;-62
2023/06/11 07:42:46;;;;;;;5.90;5.30;;;24.50;99.90;;;;;;5043546;28;20428;-58
2023/06/11 07:45:12;;;;;;;5.37;4.83;;;24.60;99.90;;;;;;5050843;28;20538;-55
2023/06/11 07:47:38;;;;;;;8.70;5.97;;;24.70;99.90;;;;;;5055872;28;20548;-56
2023/06/11 07:50:04;;;;;;;6.43;5.40;;;25.00;99.90;;;;;;5049514;28;21072;-56
2023/06/11 07:52:30;;;;;;;8.37;6.13;;;25.10;99.90;;;;;;5046849;28;20195;-55
2023/06/11 07:54:56;;;;;;;5.83;5.00;;;25.30;99.90;;;;;;5044304;28;20819;-55
2023/06/11 07:57:22;;;;;;;6.17;5.40;;;25.30;99.90;;;;;;5045306;28;20187;-56
2023/06/11 07:59:48;;;;;;;6.90;6.20;;;25.40;99.90;;;;;;5048304;28;20229;-57
2023/06/11 08:02:17;;;;;;;5.63;4.93;;;25.60;99.90;;;;;;5050040;28;20427;-56
2023/06/11 08:04:43;;;;;;;7.20;5.80;;;25.70;99.90;;;;;;5040359;28;20202;-56
2023/06/11 08:07:09;;;;;;;6.10;5.50;;;26.00;99.90;;;;;;5045146;28;20919;-55
2023/06/11 08:09:35;;;;;;;5.83;5.33;;;26.10;99.90;;;;;;5042929;28;20195;-56
2023/06/11 08:12:05;;;;;;;6.87;6.10;;;26.20;99.90;;;;;;5047338;28;20446;-55
2023/06/11 08:14:32;;;;;;;5.83;5.33;;;26.10;99.90;;;;;;5045015;28;20467;-56
2023/06/11 08:16:58;;;;;;;6.17;5.57;;;26.20;99.90;;;;;;5045688;28;20452;-56
2023/06/11 08:19:24;;;;;;;7.00;6.30;;;26.20;99.90;;;;;;5046054;28;20862;-55
2023/06/11 08:21:50;;;;;;;8.90;5.90;;;26.30;99.90;;;;;;5047819;28;20449;-57
2023/06/11 08:24:18;;;;;;;6.40;5.80;;;26.50;99.90;;;;;;5043520;28;20212;-55
2023/06/11 08:26:44;;;;;;;7.80;6.33;;;26.60;99.90;;;;;;5051514;28;20656;-57
2023/06/11 08:29:10;;;;;;;6.50;5.90;;;26.70;99.90;;;;;;5047182;28;20964;-57
2023/06/11 08:31:35;;;;;;;6.37;5.87;;;26.90;99.90;;;;;;5044580;28;20457;-56
2023/06/11 08:34:01;;;;;;;7.23;6.63;;;27.10;99.90;;;;;;5048765;28;20212;-56
2023/06/11 08:36:27;;;;;;;8.37;7.20;;;27.30;99.90;;;;;;5048935;28;20414;-55
2023/06/11 08:38:52;;;;;;;6.97;6.33;;;27.30;99.90;;;;;;5044637;28;20276;-55
2023/06/11 08:41:19;;;;;;;6.93;6.27;;;27.40;99.90;;;;;;5051259;28;20201;-56
2023/06/11 08:43:45;;;;;;;5.93;5.33;;;27.30;99.90;;;;;;5046423;28;20669;-55
2023/06/11 08:46:14;;;;;;;6.90;6.20;;;27.10;99.90;;;;;;5051068;28;20448;-55
2023/06/11 08:48:42;;;;;;;8.57;5.77;;;27.20;99.90;;;;;;5043139;28;20197;-55
2023/06/11 08:51:10;;;;;;;6.90;6.30;;;27.20;99.90;;;;;;5044268;28;20444;-58
2023/06/11 08:53:36;;;;;;;6.13;5.53;;;27.20;99.90;;;;;;5044648;28;20793;-56
2023/06/11 08:56:02;;;;;;;5.80;5.40;;;27.30;99.90;;;;;;5046535;28;20453;-56
2023/06/11 08:58:31;;;;;;;7.00;6.30;;;27.20;99.90;;;;;;5042247;28;20463;-56
2023/06/11 09:00:57;;;;;;;6.97;6.27;;;27.00;99.90;;;;;;5044121;28;20231;-56
2023/06/11 09:03:23;;;;;;;7.47;6.77;;;26.70;99.90;;;;;;5042729;28;20769;-57
2023/06/11 09:05:49;;;;;;;5.83;5.30;;;26.70;99.90;;;;;;5045538;28;20638;-55
2023/06/11 09:08:15;;;;;;;6.90;5.93;;;26.60;99.90;;;;;;5049933;28;20199;-55
2023/06/11 09:10:50;;;;;;;11.53;6.60;;;26.60;99.90;;;;;;5047513;28;20463;-56
2023/06/11 09:13:18;;;;;;;6.57;6.07;;;26.50;99.90;;;;;;5046034;28;20472;-55
2023/06/11 09:15:52;;;;;;;9.27;6.50;;;26.70;99.90;;;;;;5044909;28;20420;-56
2023/06/11 09:18:27;;;;;;;6.70;6.10;;;26.80;99.90;;;;;;5043191;28;20446;-56
2023/06/11 09:20:55;;;;;;;5.67;5.03;;;27.10;99.90;;;;;;5045383;28;20446;-55
2023/06/11 09:23:31;;;;;;;6.40;5.80;;;27.20;99.90;;;;;;5045247;28;20526;-55
2023/06/11 09:26:00;;;;;;;6.40;5.63;;;27.30;99.90;;;;;;5044200;28;20488;-56
2023/06/11 09:28:32;;;;;;;8.63;5.50;;;27.40;99.90;;;;;;5039315;28;20518;-56
2023/06/11 09:31:00;;;;;;;6.77;5.80;;;27.30;99.90;;;;;;5044433;28;20499;-57
2023/06/11 09:33:27;;;;;;;5.60;5.03;;;27.00;99.90;;;;;;5044973;28;20975;-56
2023/06/11 09:35:53;;;;;;;5.90;5.30;;;26.90;99.90;;;;;;5044497;28;20539;-56
2023/06/11 09:38:20;;;;;;;5.67;5.10;;;26.70;99.90;;;;;;5042534;28;20457;-56
2023/06/11 09:40:51;;;;;;;5.87;5.37;;;26.80;99.90;;;;;;5039479;28;20535;-56
2023/06/11 09:43:24;;;;;;;6.10;5.60;;;26.90;99.90;;;;;;5044536;28;20461;-57
2023/06/11 09:45:52;;;;;;;5.93;5.20;;;26.80;99.90;;;;;;5042268;28;20815;-57
2023/06/11 09:48:25;;;;;;;6.40;5.80;;;26.80;99.90;;;;;;5045543;28;20544;-56
2023/06/11 09:50:54;;;;;;;8.37;6.20;;;27.00;99.90;;;;;;5042920;28;20427;-56
2023/06/11 09:53:21;;;;;;;5.20;4.80;;;27.00;99.90;;;;;;5046209;28;20530;-56
2023/06/11 09:55:50;;;;;;;6.73;6.17;;;26.90;99.90;;;;;;5036872;28;22130;-55
2023/06/11 09:58:17;;;;;;;6.70;6.10;;;26.70;99.90;;;;;;5044506;28;20447;-56
2023/06/11 10:00:47;;;;;;;6.60;6.00;;;26.90;99.90;;;;;;5043990;28;20532;-56
2023/06/11 10:03:13;;;;;;;7.00;5.97;;;26.90;99.90;;;;;;5045209;28;20451;-56
2023/06/11 10:05:39;;;;;;;6.97;6.37;;;27.20;99.90;;;;;;5047548;28;20780;-55
2023/06/11 10:08:12;;;;;;;6.63;6.13;;;27.20;99.90;;;;;;5046762;28;20219;-57
2023/06/11 10:10:43;;;;;;;6.67;5.93;;;27.20;99.90;;;;;;5042858;28;20182;-57
2023/06/11 10:13:09;;;;;;;6.43;5.23;;;27.30;99.90;;;;;;5042880;28;20569;-57
2023/06/11 10:15:36;;;;;;;6.53;6.03;;;27.40;99.90;;;;;;5044081;28;21007;-56
2023/06/11 10:18:12;;;;;;;6.80;6.10;;;27.60;99.90;;;;;;5043908;28;20179;-56
2023/06/11 10:20:49;;;;;;;6.57;6.00;;;27.90;99.90;;;;;;5039192;28;20523;-55
2023/06/11 10:23:15;;;;;;;6.83;6.23;;;28.10;99.90;;;;;;5042970;28;20546;-60
2023/06/11 10:25:41;;;;;;;6.77;6.27;;;27.80;99.90;;;;;;5040667;28;20646;-56
2023/06/11 10:28:08;;;;;;;6.50;5.90;;;27.70;99.90;;;;;;5045443;28;20191;-57
2023/06/11 10:30:34;;;;;;;6.40;5.77;;;28.00;99.90;;;;;;5044370;28;20465;-56
2023/06/11 10:33:00;;;;;;;6.50;6.00;;;27.70;99.90;;;;;;5049273;28;20964;-55
2023/06/11 10:35:32;;;;;;;7.00;6.30;;;27.70;99.90;;;;;;5046531;28;20449;-57
2023/06/11 10:38:06;;;;;;;6.33;5.83;;;27.80;99.90;;;;;;5047186;28;20450;-56
2023/06/11 10:40:38;;;;;;;7.30;6.60;;;27.90;99.90;;;;;;5046281;28;20446;-56
2023/06/11 10:43:22;;;;;;;7.47;6.77;;;27.90;99.90;;;;;;5044461;28;20457;-57
2023/06/11 10:46:02;;;;;;;6.50;5.90;;;27.30;99.90;;;;;;5045355;28;20467;-57
2023/06/11 10:48:28;;;;;;;6.63;6.03;;;26.90;99.90;;;;;;5044902;28;20953;-58
2023/06/11 10:51:05;;;;;;;6.10;5.60;;;26.90;99.90;;;;;;5046280;28;20448;-56
2023/06/11 10:53:39;;;;;;;9.33;5.80;;;27.10;99.90;;;;;;5055644;28;20465;-55
2023/06/11 10:56:06;;;;;;;6.00;5.50;;;27.30;99.90;;;;;;5055336;28;20529;-57
2023/06/11 10:58:33;;;;;;;5.87;5.23;;;27.50;99.90;;;;;;5045949;28;20444;-56
2023/06/11 11:00:59;;;;;;;6.33;5.83;;;27.70;99.90;;;;;;5048643;28;20816;-55
2023/06/11 11:03:30;;;;;;;6.40;5.37;;;27.40;99.90;;;;;;5052896;28;20446;-57
2023/06/11 11:05:57;;;;;;;5.53;5.13;;;27.40;99.90;;;;;;5045369;28;20209;-58
2023/06/11 11:08:23;;;;;;;6.53;5.93;;;27.40;99.90;;;;;;5048928;28;20456;-57
2023/06/11 11:10:56;;;;;;;6.37;5.77;;;27.40;99.90;;;;;;5049671;28;20450;-56
2023/06/11 11:13:23;;;;;;;6.13;5.63;;;27.60;99.90;;;;;;5048613;28;20303;-56
2023/06/11 11:15:50;;;;;;;6.50;5.83;;;27.40;99.90;;;;;;5043791;28;20454;-55
2023/06/11 11:18:16;;;;;;;6.17;5.70;;;27.10;99.90;;;;;;5046140;28;20416;-55
2023/06/11 11:20:45;;;;;;;6.27;5.77;;;27.30;99.90;;;;;;5045337;28;20834;-55
2023/06/11 11:23:11;;;;;;;5.73;5.20;;;27.60;99.90;;;;;;5043155;28;20453;-56
2023/06/11 11:25:38;;;;;;;5.80;5.27;;;27.60;99.90;;;;;;5051022;28;20780;-55
2023/06/11 11:28:04;;;;;;;6.67;6.13;;;27.50;99.90;;;;;;5044776;28;20452;-56
2023/06/11 11:30:29;;;;;;;8.20;7.40;;;27.60;99.90;;;;;;5047827;28;20444;-55
2023/06/11 11:32:56;;;;;;;8.73;7.87;;;27.70;99.90;;;;;;5043580;28;20580;-55
2023/06/11 11:35:22;;;;;;;6.70;6.10;;;27.80;99.90;;;;;;5045361;28;20518;-55
2023/06/11 11:37:51;;;;;;;8.47;7.43;;;28.00;99.90;;;;;;5045893;28;20450;-57
2023/06/11 11:40:21;;;;;;;7.40;6.80;;;27.60;99.90;;;;;;5048061;28;20949;-56
2023/06/11 11:42:51;;;;;;;7.07;6.47;;;27.40;99.90;;;;;;5048689;28;20458;-55
2023/06/11 11:45:18;;;;;;;6.73;6.03;;;27.30;99.90;;;;;;5047378;28;20838;-54
2023/06/11 11:47:46;;;;;;;7.93;7.20;;;27.50;99.90;;;;;;5049046;28;20541;-55
2023/06/11 11:50:27;;;;;;;6.40;5.80;;;27.70;99.90;;;;;;5047478;28;20453;-55
2023/06/11 11:53:06;;;;;;;6.53;6.00;;;27.30;99.90;;;;;;5046618;28;20866;-56
2023/06/11 11:55:34;;;;;;;6.40;5.90;;;27.20;99.90;;;;;;5048820;28;20525;-55
2023/06/11 11:58:19;;;;;;;6.03;5.50;;;27.30;99.90;;;;;;5054567;28;21005;-55
2023/06/11 12:00:53;;;;;;;7.27;5.77;;;27.30;99.90;;;;;;5038013;28;20472;-55
2023/06/11 12:03:20;;;;;;;6.13;5.53;;;27.60;99.90;;;;;;5046214;28;20458;-55
2023/06/11 12:06:04;;;;;;;7.07;6.40;;;27.80;99.90;;;;;;5044188;28;20506;-55
2023/06/11 12:08:31;;;;;;;6.67;6.17;;;27.90;99.90;;;;;;5043962;28;20466;-55
2023/06/11 12:10:58;;;;;;;6.50;5.90;;;27.90;99.90;;;;;;5047233;28;20454;-56
2023/06/11 12:13:24;;;;;;;7.13;6.50;;;27.90;99.90;;;;;;5048220;28;20465;-54
2023/06/11 12:15:50;;;;;;;7.63;6.97;;;27.70;99.90;;;;;;5044552;28;20441;-55
2023/06/11 12:18:16;;;;;;;6.17;5.60;;;27.80;99.90;;;;;;5051102;28;20864;-56
2023/06/11 12:20:41;;;;;;;6.60;6.00;;;27.80;99.90;;;;;;5040713;28;20353;-55
2023/06/11 12:23:08;;;;;;;7.20;6.50;;;27.90;99.90;;;;;;5050215;28;20188;-55
2023/06/11 12:25:33;;;;;;;6.80;6.13;;;28.20;99.90;;;;;;5048261;28;20198;-57
2023/06/11 12:28:00;;;;;;;6.77;6.10;;;28.50;99.90;;;;;;5046448;28;20971;-56
2023/06/11 12:30:26;;;;;;;7.73;7.00;;;28.70;99.90;;;;;;5045668;28;20219;-56
2023/06/11 12:32:52;;;;;;;6.40;5.90;;;28.60;99.90;;;;;;5047187;28;20920;-55
2023/06/11 12:35:18;;;;;;;6.50;5.90;;;28.30;99.90;;;;;;5041131;28;20483;-55
2023/06/11 12:37:45;;;;;;;8.03;7.33;;;28.20;99.90;;;;;;5041879;28;20930;-56
2023/06/11 12:40:12;;;;;;;8.30;6.23;;;27.80;99.90;;;;;;5042413;28;20870;-55
2023/06/11 12:42:38;;;;;;;7.03;6.47;;;27.40;99.90;;;;;;5046823;28;21142;-58
2023/06/11 12:45:04;;;;;;;7.77;7.07;;;27.30;99.90;;;;;;5047898;28;21019;-56
2023/06/11 12:47:30;;;;;;;7.80;7.00;;;27.50;99.90;;;;;;5047801;28;20450;-54